sensor_id;sensor_type;location;lat;lon;timestamp;temperature;humidity
12578;DHT22;6354;51.026;8.968;2022-12-11T00:01:08;-0.10;99.90
12578;DHT22;6354;51.026;8.968;2022-12-11T00:03:36;-0.10;99.90
12578;DHT22;6354;51.026;8.968;2022-12-11T00:06:07;-0.10;99.90
12578;DHT22;6354;51.026;8.968;2022-12-11T00:08:36;-0.10;99.90
12578;DHT22;6354;51.026;8.968;2022-12-11T00:11:06;-0.10;99.90
12578;DHT22;6354;51.026;8.968;2022-12-11T00:13:34;-0.10;99.90
12578;DHT22;6354;51.026;8.968;2022-12-11T00:16:03;-0.10;99.90
12578;DHT22;6354;51.026;8.968;2022-12-11T00:18:31;-0.10;99.90
12578;DHT22;6354;51.026;8.968;2022-12-11T00:20:59;-0.10;99.90
12578;DHT22;6354;51.026;8.968;2022-12-11T00:23:29;-0.10;99.90
12578;DHT22;6354;51.026;8.968;2022-12-11T00:25:57;-0.10;99.90
12578;DHT22;6354;51.026;8.968;2022-12-11T00:28:25;-0.10;99.90
12578;DHT22;6354;51.026;8.968;2022-12-11T00:30:53;-0.10;99.90
12578;DHT22;6354;51.026;8.968;2022-12-11T00:33:22;-0.10;99.90
12578;DHT22;6354;51.026;8.968;2022-12-11T00:35:50;-0.10;99.90
12578;DHT22;6354;51.026;8.968;2022-12-11T00:38:19;-0.10;99.90
12578;DHT22;6354;51.026;8.968;2022-12-11T00:40:49;-0.10;99.90
12578;DHT22;6354;51.026;8.968;2022-12-11T00:43:17;-0.10;99.90
12578;DHT22;6354;51.026;8.968;2022-12-11T00:45:46;-0.10;99.90
12578;DHT22;6354;51.026;8.968;2022-12-11T00:48:14;0.00;99.90
12578;DHT22;6354;51.026;8.968;2022-12-11T00:50:42;0.00;99.90
12578;DHT22;6354;51.026;8.968;2022-12-11T00:53:10;0.00;99.90
12578;DHT22;6354;51.026;8.968;2022-12-11T00:55:40;0.00;99.90
12578;DHT22;6354;51.026;8.968;2022-12-11T00:58:10;0.00;99.90
12578;DHT22;6354;51.026;8.968;2022-12-11T01:00:39;0.00;99.90
12578;DHT22;6354;51.026;8.968;2022-12-11T01:03:07;0.00;99.90
12578;DHT22;6354;51.026;8.968;2022-12-11T01:05:36;0.00;99.90
12578;DHT22;6354;51.026;8.968;2022-12-11T01:08:04;-0.10;99.90
12578;DHT22;6354;51.026;8.968;2022-12-11T01:10:32;0.00;99.90
12578;DHT22;6354;51.026;8.968;2022-12-11T01:13:02;0.00;99.90
12578;DHT22;6354;51.026;8.968;2022-12-11T01:15:37;0.00;99.90
12578;DHT22;6354;51.026;8.968;2022-12-11T01:18:08;0.00;99.90
12578;DHT22;6354;51.026;8.968;2022-12-11T01:20:37;0.00;99.90
12578;DHT22;6354;51.026;8.968;2022-12-11T01:23:06;0.00;99.90
12578;DHT22;6354;51.026;8.968;2022-12-11T01:25:34;0.00;99.90
12578;DHT22;6354;51.026;8.968;2022-12-11T01:28:05;0.10;99.90
12578;DHT22;6354;51.026;8.968;2022-12-11T01:30:35;0.00;99.90
12578;DHT22;6354;51.026;8.968;2022-12-11T01:33:03;0.00;99.90
12578;DHT22;6354;51.026;8.968;2022-12-11T01:35:31;0.00;99.90
12578;DHT22;6354;51.026;8.968;2022-12-11T01:37:59;-0.10;99.90
12578;DHT22;6354;51.026;8.968;2022-12-11T01:40:28;-0.10;99.90
12578;DHT22;6354;51.026;8.968;2022-12-11T01:42:56;-0.20;99.90
12578;DHT22;6354;51.026;8.968;2022-12-11T01:45:36;-0.20;99.90
12578;DHT22;6354;51.026;8.968;2022-12-11T01:48:09;-0.10;99.90
12578;DHT22;6354;51.026;8.968;2022-12-11T01:50:41;-0.10;99.90
12578;DHT22;6354;51.026;8.968;2022-12-11T01:53:14;-0.10;99.90
12578;DHT22;6354;51.026;8.968;2022-12-11T01:55:44;-0.10;99.90
12578;DHT22;6354;51.026;8.968;2022-12-11T01:58:14;0.00;99.90
12578;DHT22;6354;51.026;8.968;2022-12-11T02:00:43;0.00;99.90
12578;DHT22;6354;51.026;8.968;2022-12-11T02:03:12;0.00;99.90
12578;DHT22;6354;51.026;8.968;2022-12-11T02:05:41;0.00;99.90
12578;DHT22;6354;51.026;8.968;2022-12-11T02:08:09;0.00;99.90
12578;DHT22;6354;51.026;8.968;2022-12-11T02:10:44;0.10;99.90
12578;DHT22;6354;51.026;8.968;2022-12-11T02:13:17;0.00;99.90
12578;DHT22;6354;51.026;8.968;2022-12-11T02:15:52;0.00;99.90
12578;DHT22;6354;51.026;8.968;2022-12-11T02:18:27;0.00;99.90
12578;DHT22;6354;51.026;8.968;2022-12-11T02:21:02;-0.10;99.90
12578;DHT22;6354;51.026;8.968;2022-12-11T02:23:50;0.00;99.90
12578;DHT22;6354;51.026;8.968;2022-12-11T02:26:42;0.00;99.90
12578;DHT22;6354;51.026;8.968;2022-12-11T02:29:18;0.00;99.90
12578;DHT22;6354;51.026;8.968;2022-12-11T02:31:52;0.00;99.90
12578;DHT22;6354;51.026;8.968;2022-12-11T02:34:25;-0.10;99.90
12578;DHT22;6354;51.026;8.968;2022-12-11T02:36:59;-0.10;99.90
12578;DHT22;6354;51.026;8.968;2022-12-11T02:39:30;-0.10;99.90
12578;DHT22;6354;51.026;8.968;2022-12-11T02:41:59;0.00;99.90
12578;DHT22;6354;51.026;8.968;2022-12-11T02:44:32;0.00;99.90
12578;DHT22;6354;51.026;8.968;2022-12-11T02:47:04;0.00;99.90
12578;DHT22;6354;51.026;8.968;2022-12-11T02:49:33;0.10;99.90
12578;DHT22;6354;51.026;8.968;2022-12-11T02:52:03;0.00;99.90
12578;DHT22;6354;51.026;8.968;2022-12-11T02:54:34;-0.10;99.90
12578;DHT22;6354;51.026;8.968;2022-12-11T02:57:07;0.00;99.90
12578;DHT22;6354;51.026;8.968;2022-12-11T02:59:39;0.00;99.90
12578;DHT22;6354;51.026;8.968;2022-12-11T03:02:08;0.10;99.90
12578;DHT22;6354;51.026;8.968;2022-12-11T03:04:38;0.10;99.90
12578;DHT22;6354;51.026;8.968;2022-12-11T03:07:15;0.00;99.90
12578;DHT22;6354;51.026;8.968;2022-12-11T03:09:46;0.10;99.90
12578;DHT22;6354;51.026;8.968;2022-12-11T03:12:17;0.10;99.90
12578;DHT22;6354;51.026;8.968;2022-12-11T03:14:48;0.10;99.90
12578;DHT22;6354;51.026;8.968;2022-12-11T03:17:18;0.10;99.90
12578;DHT22;6354;51.026;8.968;2022-12-11T03:19:54;0.10;99.90
12578;DHT22;6354;51.026;8.968;2022-12-11T03:22:33;0.10;99.90
12578;DHT22;6354;51.026;8.968;2022-12-11T03:25:07;0.10;99.90
12578;DHT22;6354;51.026;8.968;2022-12-11T03:27:41;0.10;99.90
12578;DHT22;6354;51.026;8.968;2022-12-11T03:30:16;0.10;99.90
12578;DHT22;6354;51.026;8.968;2022-12-11T03:32:48;0.10;99.90
12578;DHT22;6354;51.026;8.968;2022-12-11T03:35:21;0.10;99.90
12578;DHT22;6354;51.026;8.968;2022-12-11T03:37:51;0.10;99.90
12578;DHT22;6354;51.026;8.968;2022-12-11T03:40:21;0.10;99.90
12578;DHT22;6354;51.026;8.968;2022-12-11T03:42:52;0.10;99.90
12578;DHT22;6354;51.026;8.968;2022-12-11T03:45:25;0.10;99.90
12578;DHT22;6354;51.026;8.968;2022-12-11T03:47:55;0.10;99.90
12578;DHT22;6354;51.026;8.968;2022-12-11T03:50:25;0.10;99.90
12578;DHT22;6354;51.026;8.968;2022-12-11T03:52:54;0.10;99.90
12578;DHT22;6354;51.026;8.968;2022-12-11T03:55:24;0.10;99.90
12578;DHT22;6354;51.026;8.968;2022-12-11T03:57:53;0.00;99.90
12578;DHT22;6354;51.026;8.968;2022-12-11T04:00:21;0.10;99.90
12578;DHT22;6354;51.026;8.968;2022-12-11T04:02:51;0.10;99.90
12578;DHT22;6354;51.026;8.968;2022-12-11T04:05:39;0.10;99.90
12578;DHT22;6354;51.026;8.968;2022-12-11T04:08:08;0.10;99.90
12578;DHT22;6354;51.026;8.968;2022-12-11T04:10:36;0.10;99.90
12578;DHT22;6354;51.026;8.968;2022-12-11T04:13:04;0.10;99.90
12578;DHT22;6354;51.026;8.968;2022-12-11T04:15:32;0.10;99.90
12578;DHT22;6354;51.026;8.968;2022-12-11T04:18:00;0.00;99.90
12578;DHT22;6354;51.026;8.968;2022-12-11T04:20:46;0.00;99.90
12578;DHT22;6354;51.026;8.968;2022-12-11T04:23:32;0.00;99.90
12578;DHT22;6354;51.026;8.968;2022-12-11T04:26:19;0.10;99.90
12578;DHT22;6354;51.026;8.968;2022-12-11T04:28:47;0.10;99.90
12578;DHT22;6354;51.026;8.968;2022-12-11T04:31:18;0.10;99.90
12578;DHT22;6354;51.026;8.968;2022-12-11T04:33:48;0.10;99.90
12578;DHT22;6354;51.026;8.968;2022-12-11T04:36:16;0.20;99.90
12578;DHT22;6354;51.026;8.968;2022-12-11T04:38:44;0.20;99.90
12578;DHT22;6354;51.026;8.968;2022-12-11T04:41:14;0.20;99.90
12578;DHT22;6354;51.026;8.968;2022-12-11T04:43:42;0.20;99.90
12578;DHT22;6354;51.026;8.968;2022-12-11T04:46:12;0.20;99.90
12578;DHT22;6354;51.026;8.968;2022-12-11T04:48:40;0.20;99.90
12578;DHT22;6354;51.026;8.968;2022-12-11T04:51:10;0.20;99.90
12578;DHT22;6354;51.026;8.968;2022-12-11T04:53:38;0.20;99.90
12578;DHT22;6354;51.026;8.968;2022-12-11T04:56:07;0.20;99.90
12578;DHT22;6354;51.026;8.968;2022-12-11T04:58:36;0.20;99.90
12578;DHT22;6354;51.026;8.968;2022-12-11T05:01:07;0.10;99.90
12578;DHT22;6354;51.026;8.968;2022-12-11T05:03:35;0.20;99.90
12578;DHT22;6354;51.026;8.968;2022-12-11T05:06:04;0.20;99.90
12578;DHT22;6354;51.026;8.968;2022-12-11T05:08:34;0.30;99.90
12578;DHT22;6354;51.026;8.968;2022-12-11T05:11:04;0.20;99.90
12578;DHT22;6354;51.026;8.968;2022-12-11T05:13:32;0.20;99.90
12578;DHT22;6354;51.026;8.968;2022-12-11T05:16:02;0.20;99.90
12578;DHT22;6354;51.026;8.968;2022-12-11T05:18:30;0.20;99.90
12578;DHT22;6354;51.026;8.968;2022-12-11T05:21:00;0.20;99.90
12578;DHT22;6354;51.026;8.968;2022-12-11T05:23:29;0.20;99.90
12578;DHT22;6354;51.026;8.968;2022-12-11T05:26:00;0.20;99.90
12578;DHT22;6354;51.026;8.968;2022-12-11T05:28:31;0.10;99.90
12578;DHT22;6354;51.026;8.968;2022-12-11T05:31:01;0.10;99.90
12578;DHT22;6354;51.026;8.968;2022-12-11T05:33:29;0.10;99.90
12578;DHT22;6354;51.026;8.968;2022-12-11T05:35:57;0.10;99.90
12578;DHT22;6354;51.026;8.968;2022-12-11T05:38:25;0.20;99.90
12578;DHT22;6354;51.026;8.968;2022-12-11T05:40:59;0.10;99.90
12578;DHT22;6354;51.026;8.968;2022-12-11T05:43:29;0.20;99.90
12578;DHT22;6354;51.026;8.968;2022-12-11T05:46:05;0.20;99.90
12578;DHT22;6354;51.026;8.968;2022-12-11T05:48:35;0.30;99.90
12578;DHT22;6354;51.026;8.968;2022-12-11T05:51:04;0.30;99.90
12578;DHT22;6354;51.026;8.968;2022-12-11T05:53:32;0.30;99.90
12578;DHT22;6354;51.026;8.968;2022-12-11T05:56:02;0.30;99.90
12578;DHT22;6354;51.026;8.968;2022-12-11T05:58:31;0.30;99.90
12578;DHT22;6354;51.026;8.968;2022-12-11T06:00:59;0.20;99.90
12578;DHT22;6354;51.026;8.968;2022-12-11T06:03:28;0.20;99.90
12578;DHT22;6354;51.026;8.968;2022-12-11T06:05:56;0.20;99.90
12578;DHT22;6354;51.026;8.968;2022-12-11T06:08:24;0.20;99.90
12578;DHT22;6354;51.026;8.968;2022-12-11T06:10:52;0.20;99.90
12578;DHT22;6354;51.026;8.968;2022-12-11T06:13:21;0.20;99.90
12578;DHT22;6354;51.026;8.968;2022-12-11T06:15:50;0.20;99.90
12578;DHT22;6354;51.026;8.968;2022-12-11T06:18:18;0.20;99.90
12578;DHT22;6354;51.026;8.968;2022-12-11T06:20:46;0.30;99.90
12578;DHT22;6354;51.026;8.968;2022-12-11T06:23:14;0.20;99.90
12578;DHT22;6354;51.026;8.968;2022-12-11T06:25:42;0.20;99.90
12578;DHT22;6354;51.026;8.968;2022-12-11T06:28:10;0.20;99.90
12578;DHT22;6354;51.026;8.968;2022-12-11T06:30:39;0.20;99.90
12578;DHT22;6354;51.026;8.968;2022-12-11T06:33:07;0.30;99.90
12578;DHT22;6354;51.026;8.968;2022-12-11T06:35:36;0.20;99.90
12578;DHT22;6354;51.026;8.968;2022-12-11T06:38:08;0.10;99.90
12578;DHT22;6354;51.026;8.968;2022-12-11T06:40:36;0.10;99.90
12578;DHT22;6354;51.026;8.968;2022-12-11T06:43:04;0.20;99.90
12578;DHT22;6354;51.026;8.968;2022-12-11T06:45:33;0.10;99.90
12578;DHT22;6354;51.026;8.968;2022-12-11T06:48:02;0.20;99.90
12578;DHT22;6354;51.026;8.968;2022-12-11T06:50:31;0.20;99.90
12578;DHT22;6354;51.026;8.968;2022-12-11T06:52:59;0.10;99.90
12578;DHT22;6354;51.026;8.968;2022-12-11T06:55:27;0.10;99.90
12578;DHT22;6354;51.026;8.968;2022-12-11T06:57:55;0.20;99.90
12578;DHT22;6354;51.026;8.968;2022-12-11T07:00:23;0.20;99.90
12578;DHT22;6354;51.026;8.968;2022-12-11T07:02:51;0.00;99.90
12578;DHT22;6354;51.026;8.968;2022-12-11T07:05:20;0.00;99.90
12578;DHT22;6354;51.026;8.968;2022-12-11T07:07:52;0.00;99.90
12578;DHT22;6354;51.026;8.968;2022-12-11T07:10:21;0.10;99.90
12578;DHT22;6354;51.026;8.968;2022-12-11T07:12:51;0.20;99.90
12578;DHT22;6354;51.026;8.968;2022-12-11T07:15:19;0.10;99.90
12578;DHT22;6354;51.026;8.968;2022-12-11T07:17:48;0.20;99.90
12578;DHT22;6354;51.026;8.968;2022-12-11T07:20:16;0.20;99.90
12578;DHT22;6354;51.026;8.968;2022-12-11T07:22:45;0.10;99.90
12578;DHT22;6354;51.026;8.968;2022-12-11T07:25:13;0.10;99.90
12578;DHT22;6354;51.026;8.968;2022-12-11T07:27:41;0.10;99.90
12578;DHT22;6354;51.026;8.968;2022-12-11T07:30:10;0.20;99.90
12578;DHT22;6354;51.026;8.968;2022-12-11T07:32:38;0.20;99.90
12578;DHT22;6354;51.026;8.968;2022-12-11T07:35:07;0.20;99.90
12578;DHT22;6354;51.026;8.968;2022-12-11T07:37:39;0.10;99.90
12578;DHT22;6354;51.026;8.968;2022-12-11T07:40:09;0.10;99.90
12578;DHT22;6354;51.026;8.968;2022-12-11T07:42:37;0.10;99.90
12578;DHT22;6354;51.026;8.968;2022-12-11T07:45:11;0.10;99.90
12578;DHT22;6354;51.026;8.968;2022-12-11T07:47:40;0.20;99.90
12578;DHT22;6354;51.026;8.968;2022-12-11T07:50:08;0.20;99.90
12578;DHT22;6354;51.026;8.968;2022-12-11T07:52:37;0.30;99.90
12578;DHT22;6354;51.026;8.968;2022-12-11T07:55:05;0.30;99.90
12578;DHT22;6354;51.026;8.968;2022-12-11T07:57:35;0.30;99.90
12578;DHT22;6354;51.026;8.968;2022-12-11T08:00:04;0.30;99.90
12578;DHT22;6354;51.026;8.968;2022-12-11T08:02:32;0.30;99.90
12578;DHT22;6354;51.026;8.968;2022-12-11T08:05:03;0.30;99.90
12578;DHT22;6354;51.026;8.968;2022-12-11T08:07:33;0.30;99.90
12578;DHT22;6354;51.026;8.968;2022-12-11T08:10:02;0.30;99.90
12578;DHT22;6354;51.026;8.968;2022-12-11T08:12:30;0.40;99.90
12578;DHT22;6354;51.026;8.968;2022-12-11T08:15:00;0.40;99.90
12578;DHT22;6354;51.026;8.968;2022-12-11T08:17:28;0.40;99.90
12578;DHT22;6354;51.026;8.968;2022-12-11T08:20:04;0.40;99.90
12578;DHT22;6354;51.026;8.968;2022-12-11T08:22:33;0.40;99.90
12578;DHT22;6354;51.026;8.968;2022-12-11T08:25:01;0.40;99.90
12578;DHT22;6354;51.026;8.968;2022-12-11T08:27:29;0.40;99.90
12578;DHT22;6354;51.026;8.968;2022-12-11T08:29:57;0.50;99.90
12578;DHT22;6354;51.026;8.968;2022-12-11T08:32:26;0.50;99.90
12578;DHT22;6354;51.026;8.968;2022-12-11T08:34:55;0.50;99.90
12578;DHT22;6354;51.026;8.968;2022-12-11T08:37:23;0.50;99.90
12578;DHT22;6354;51.026;8.968;2022-12-11T08:39:51;0.50;99.90
12578;DHT22;6354;51.026;8.968;2022-12-11T08:42:19;0.50;99.90
12578;DHT22;6354;51.026;8.968;2022-12-11T08:44:47;0.30;99.90
12578;DHT22;6354;51.026;8.968;2022-12-11T08:47:15;0.30;99.90
12578;DHT22;6354;51.026;8.968;2022-12-11T08:49:45;0.40;99.90
12578;DHT22;6354;51.026;8.968;2022-12-11T08:52:13;0.50;99.90
12578;DHT22;6354;51.026;8.968;2022-12-11T08:54:41;0.30;99.90
12578;DHT22;6354;51.026;8.968;2022-12-11T08:57:09;0.30;99.90
12578;DHT22;6354;51.026;8.968;2022-12-11T08:59:37;0.40;99.90
12578;DHT22;6354;51.026;8.968;2022-12-11T09:02:06;0.50;99.90
12578;DHT22;6354;51.026;8.968;2022-12-11T09:04:34;0.60;99.90
12578;DHT22;6354;51.026;8.968;2022-12-11T09:07:04;0.60;99.90
12578;DHT22;6354;51.026;8.968;2022-12-11T09:09:32;0.50;99.90
12578;DHT22;6354;51.026;8.968;2022-12-11T09:12:00;0.50;99.90
12578;DHT22;6354;51.026;8.968;2022-12-11T09:14:30;0.70;99.90
12578;DHT22;6354;51.026;8.968;2022-12-11T09:16:58;0.70;99.90
12578;DHT22;6354;51.026;8.968;2022-12-11T09:19:26;0.70;99.90
12578;DHT22;6354;51.026;8.968;2022-12-11T09:21:58;0.70;99.90
12578;DHT22;6354;51.026;8.968;2022-12-11T09:24:28;0.70;99.90
12578;DHT22;6354;51.026;8.968;2022-12-11T09:26:56;0.60;99.90
12578;DHT22;6354;51.026;8.968;2022-12-11T09:29:25;0.60;99.90
12578;DHT22;6354;51.026;8.968;2022-12-11T09:31:53;0.60;99.90
12578;DHT22;6354;51.026;8.968;2022-12-11T09:34:21;0.70;99.90
12578;DHT22;6354;51.026;8.968;2022-12-11T09:36:55;0.70;99.90
12578;DHT22;6354;51.026;8.968;2022-12-11T09:39:23;0.70;99.90
12578;DHT22;6354;51.026;8.968;2022-12-11T09:41:57;0.70;99.90
12578;DHT22;6354;51.026;8.968;2022-12-11T09:44:37;0.70;99.90
12578;DHT22;6354;51.026;8.968;2022-12-11T09:47:15;0.70;99.90
12578;DHT22;6354;51.026;8.968;2022-12-11T09:49:48;0.80;99.90
12578;DHT22;6354;51.026;8.968;2022-12-11T09:52:19;0.80;99.90
12578;DHT22;6354;51.026;8.968;2022-12-11T09:54:51;0.80;99.90
12578;DHT22;6354;51.026;8.968;2022-12-11T09:57:30;0.80;99.90
12578;DHT22;6354;51.026;8.968;2022-12-11T10:00:08;0.90;99.90
12578;DHT22;6354;51.026;8.968;2022-12-11T10:02:50;0.90;99.90
12578;DHT22;6354;51.026;8.968;2022-12-11T10:05:24;0.90;99.90
12578;DHT22;6354;51.026;8.968;2022-12-11T10:08:02;0.90;99.90
12578;DHT22;6354;51.026;8.968;2022-12-11T10:10:39;0.80;99.90
12578;DHT22;6354;51.026;8.968;2022-12-11T10:13:20;0.90;99.90
12578;DHT22;6354;51.026;8.968;2022-12-11T10:15:53;0.90;99.90
12578;DHT22;6354;51.026;8.968;2022-12-11T10:18:25;0.90;99.90
12578;DHT22;6354;51.026;8.968;2022-12-11T10:20:55;1.00;99.90
12578;DHT22;6354;51.026;8.968;2022-12-11T10:23:27;1.00;99.90
12578;DHT22;6354;51.026;8.968;2022-12-11T10:26:04;1.00;99.90
12578;DHT22;6354;51.026;8.968;2022-12-11T10:28:34;1.00;99.90
12578;DHT22;6354;51.026;8.968;2022-12-11T10:31:09;1.00;99.90
12578;DHT22;6354;51.026;8.968;2022-12-11T10:33:48;1.10;99.90
12578;DHT22;6354;51.026;8.968;2022-12-11T10:36:21;0.90;99.90
12578;DHT22;6354;51.026;8.968;2022-12-11T10:38:52;0.90;99.90
12578;DHT22;6354;51.026;8.968;2022-12-11T10:41:23;0.80;99.90
12578;DHT22;6354;51.026;8.968;2022-12-11T10:43:57;0.90;99.90
12578;DHT22;6354;51.026;8.968;2022-12-11T10:46:28;0.90;99.90
12578;DHT22;6354;51.026;8.968;2022-12-11T10:48:59;0.90;99.90
12578;DHT22;6354;51.026;8.968;2022-12-11T10:51:33;1.10;99.90
12578;DHT22;6354;51.026;8.968;2022-12-11T10:54:05;1.10;99.90
12578;DHT22;6354;51.026;8.968;2022-12-11T10:56:36;1.10;99.90
12578;DHT22;6354;51.026;8.968;2022-12-11T10:59:06;1.10;99.90
12578;DHT22;6354;51.026;8.968;2022-12-11T11:01:34;1.10;99.90
12578;DHT22;6354;51.026;8.968;2022-12-11T11:04:05;1.10;99.90
12578;DHT22;6354;51.026;8.968;2022-12-11T11:06:34;1.10;99.90
12578;DHT22;6354;51.026;8.968;2022-12-11T11:09:03;1.20;99.90
12578;DHT22;6354;51.026;8.968;2022-12-11T11:11:34;1.20;99.90
12578;DHT22;6354;51.026;8.968;2022-12-11T11:14:13;1.00;99.90
12578;DHT22;6354;51.026;8.968;2022-12-11T11:16:42;1.00;99.90
12578;DHT22;6354;51.026;8.968;2022-12-11T11:19:22;1.00;99.90
12578;DHT22;6354;51.026;8.968;2022-12-11T11:21:54;1.10;99.90
12578;DHT22;6354;51.026;8.968;2022-12-11T11:24:27;1.20;99.90
12578;DHT22;6354;51.026;8.968;2022-12-11T11:26:56;1.30;99.90
12578;DHT22;6354;51.026;8.968;2022-12-11T11:29:41;1.20;99.90
12578;DHT22;6354;51.026;8.968;2022-12-11T11:32:21;1.10;99.90
12578;DHT22;6354;51.026;8.968;2022-12-11T11:34:50;1.10;99.90
12578;DHT22;6354;51.026;8.968;2022-12-11T11:37:23;1.10;99.90
12578;DHT22;6354;51.026;8.968;2022-12-11T11:39:55;1.10;99.90
12578;DHT22;6354;51.026;8.968;2022-12-11T11:42:36;1.20;99.90
12578;DHT22;6354;51.026;8.968;2022-12-11T11:45:11;1.10;99.90
12578;DHT22;6354;51.026;8.968;2022-12-11T11:47:47;1.10;99.90
12578;DHT22;6354;51.026;8.968;2022-12-11T11:50:21;1.20;99.90
12578;DHT22;6354;51.026;8.968;2022-12-11T11:52:54;1.20;99.90
12578;DHT22;6354;51.026;8.968;2022-12-11T11:55:36;1.30;99.90
12578;DHT22;6354;51.026;8.968;2022-12-11T11:58:12;1.30;99.90
12578;DHT22;6354;51.026;8.968;2022-12-11T12:00:43;1.30;99.90
12578;DHT22;6354;51.026;8.968;2022-12-11T12:03:14;1.30;99.90
12578;DHT22;6354;51.026;8.968;2022-12-11T12:05:48;1.40;99.90
12578;DHT22;6354;51.026;8.968;2022-12-11T12:08:28;1.40;99.90
12578;DHT22;6354;51.026;8.968;2022-12-11T12:11:03;1.30;99.90
12578;DHT22;6354;51.026;8.968;2022-12-11T12:13:40;1.40;99.90
12578;DHT22;6354;51.026;8.968;2022-12-11T12:16:21;1.40;99.90
12578;DHT22;6354;51.026;8.968;2022-12-11T12:19:24;1.40;99.90
12578;DHT22;6354;51.026;8.968;2022-12-11T12:22:04;1.40;99.90
12578;DHT22;6354;51.026;8.968;2022-12-11T12:24:40;1.30;99.90
12578;DHT22;6354;51.026;8.968;2022-12-11T12:27:28;1.30;99.90
12578;DHT22;6354;51.026;8.968;2022-12-11T12:30:18;1.40;99.90
12578;DHT22;6354;51.026;8.968;2022-12-11T12:33:01;1.30;99.90
12578;DHT22;6354;51.026;8.968;2022-12-11T12:35:35;1.30;99.90
12578;DHT22;6354;51.026;8.968;2022-12-11T12:38:09;1.30;99.90
12578;DHT22;6354;51.026;8.968;2022-12-11T12:40:50;1.40;99.90
12578;DHT22;6354;51.026;8.968;2022-12-11T12:43:46;1.40;99.90
12578;DHT22;6354;51.026;8.968;2022-12-11T12:46:26;1.30;99.90
12578;DHT22;6354;51.026;8.968;2022-12-11T12:48:59;1.30;99.90
12578;DHT22;6354;51.026;8.968;2022-12-11T12:51:29;1.30;99.90
12578;DHT22;6354;51.026;8.968;2022-12-11T12:54:00;1.30;99.90
12578;DHT22;6354;51.026;8.968;2022-12-11T12:56:37;1.30;99.90
12578;DHT22;6354;51.026;8.968;2022-12-11T12:59:18;1.30;99.90
12578;DHT22;6354;51.026;8.968;2022-12-11T13:01:49;1.30;99.90
12578;DHT22;6354;51.026;8.968;2022-12-11T13:04:43;1.30;99.90
12578;DHT22;6354;51.026;8.968;2022-12-11T13:07:26;1.40;99.90
12578;DHT22;6354;51.026;8.968;2022-12-11T13:10:02;1.30;99.90
12578;DHT22;6354;51.026;8.968;2022-12-11T13:12:38;1.40;99.90
12578;DHT22;6354;51.026;8.968;2022-12-11T13:15:25;1.30;99.90
12578;DHT22;6354;51.026;8.968;2022-12-11T13:17:54;1.30;99.90
12578;DHT22;6354;51.026;8.968;2022-12-11T13:20:25;1.30;99.90
12578;DHT22;6354;51.026;8.968;2022-12-11T13:23:14;1.30;99.90
12578;DHT22;6354;51.026;8.968;2022-12-11T13:25:49;1.40;99.90
12578;DHT22;6354;51.026;8.968;2022-12-11T13:28:27;1.20;99.90
12578;DHT22;6354;51.026;8.968;2022-12-11T13:31:02;1.20;99.90
12578;DHT22;6354;51.026;8.968;2022-12-11T13:33:32;1.30;99.90
12578;DHT22;6354;51.026;8.968;2022-12-11T13:36:25;1.30;99.90
12578;DHT22;6354;51.026;8.968;2022-12-11T13:38:55;1.40;99.90
12578;DHT22;6354;51.026;8.968;2022-12-11T13:41:26;1.40;99.90
12578;DHT22;6354;51.026;8.968;2022-12-11T13:43:56;1.40;99.90
12578;DHT22;6354;51.026;8.968;2022-12-11T13:46:26;1.40;99.90
12578;DHT22;6354;51.026;8.968;2022-12-11T13:48:57;1.40;99.90
12578;DHT22;6354;51.026;8.968;2022-12-11T13:51:30;1.40;99.90
12578;DHT22;6354;51.026;8.968;2022-12-11T13:54:13;1.40;99.90
12578;DHT22;6354;51.026;8.968;2022-12-11T13:56:57;1.30;99.90
12578;DHT22;6354;51.026;8.968;2022-12-11T13:59:29;1.30;99.90
12578;DHT22;6354;51.026;8.968;2022-12-11T14:02:00;1.40;99.90
12578;DHT22;6354;51.026;8.968;2022-12-11T14:04:32;1.40;99.90
12578;DHT22;6354;51.026;8.968;2022-12-11T14:07:05;1.40;99.90
12578;DHT22;6354;51.026;8.968;2022-12-11T14:09:37;1.40;99.90
12578;DHT22;6354;51.026;8.968;2022-12-11T14:12:15;1.40;99.90
12578;DHT22;6354;51.026;8.968;2022-12-11T14:14:47;1.40;99.90
12578;DHT22;6354;51.026;8.968;2022-12-11T14:17:22;1.40;99.90
12578;DHT22;6354;51.026;8.968;2022-12-11T14:19:51;1.40;99.90
12578;DHT22;6354;51.026;8.968;2022-12-11T14:22:23;1.30;99.90
12578;DHT22;6354;51.026;8.968;2022-12-11T14:24:53;1.30;99.90
12578;DHT22;6354;51.026;8.968;2022-12-11T14:27:22;1.30;99.90
12578;DHT22;6354;51.026;8.968;2022-12-11T14:29:51;1.40;99.90
12578;DHT22;6354;51.026;8.968;2022-12-11T14:32:26;1.30;99.90
12578;DHT22;6354;51.026;8.968;2022-12-11T14:34:57;1.30;99.90
12578;DHT22;6354;51.026;8.968;2022-12-11T14:37:28;1.30;99.90
12578;DHT22;6354;51.026;8.968;2022-12-11T14:39:59;1.40;99.90
12578;DHT22;6354;51.026;8.968;2022-12-11T14:42:30;1.40;99.90
12578;DHT22;6354;51.026;8.968;2022-12-11T14:45:04;1.40;99.90
12578;DHT22;6354;51.026;8.968;2022-12-11T14:47:37;1.40;99.90
12578;DHT22;6354;51.026;8.968;2022-12-11T14:50:10;1.40;99.90
12578;DHT22;6354;51.026;8.968;2022-12-11T14:52:44;1.30;99.90
12578;DHT22;6354;51.026;8.968;2022-12-11T14:55:16;1.30;99.90
12578;DHT22;6354;51.026;8.968;2022-12-11T14:57:47;1.20;99.90
12578;DHT22;6354;51.026;8.968;2022-12-11T15:00:26;1.20;99.90
12578;DHT22;6354;51.026;8.968;2022-12-11T15:02:59;1.20;99.90
12578;DHT22;6354;51.026;8.968;2022-12-11T15:05:28;1.30;99.90
12578;DHT22;6354;51.026;8.968;2022-12-11T15:08:17;1.30;99.90
12578;DHT22;6354;51.026;8.968;2022-12-11T15:11:02;1.30;99.90
12578;DHT22;6354;51.026;8.968;2022-12-11T15:13:31;1.30;99.90
12578;DHT22;6354;51.026;8.968;2022-12-11T15:16:00;1.30;99.90
12578;DHT22;6354;51.026;8.968;2022-12-11T15:18:31;1.30;99.90
12578;DHT22;6354;51.026;8.968;2022-12-11T15:21:02;1.20;99.90
12578;DHT22;6354;51.026;8.968;2022-12-11T15:23:38;1.20;99.90
12578;DHT22;6354;51.026;8.968;2022-12-11T15:26:13;1.20;99.90
12578;DHT22;6354;51.026;8.968;2022-12-11T15:28:41;1.30;99.90
12578;DHT22;6354;51.026;8.968;2022-12-11T15:31:22;1.30;99.90
12578;DHT22;6354;51.026;8.968;2022-12-11T15:33:51;1.30;99.90
12578;DHT22;6354;51.026;8.968;2022-12-11T15:36:24;1.30;99.90
12578;DHT22;6354;51.026;8.968;2022-12-11T15:38:53;1.30;99.90
12578;DHT22;6354;51.026;8.968;2022-12-11T15:41:22;1.30;99.90
12578;DHT22;6354;51.026;8.968;2022-12-11T15:43:52;1.30;99.90
12578;DHT22;6354;51.026;8.968;2022-12-11T15:46:25;1.30;99.90
12578;DHT22;6354;51.026;8.968;2022-12-11T15:48:54;1.30;99.90
12578;DHT22;6354;51.026;8.968;2022-12-11T15:51:23;1.30;99.90
12578;DHT22;6354;51.026;8.968;2022-12-11T15:53:54;1.20;99.90
12578;DHT22;6354;51.026;8.968;2022-12-11T15:56:22;1.20;99.90
12578;DHT22;6354;51.026;8.968;2022-12-11T15:58:50;1.20;99.90
12578;DHT22;6354;51.026;8.968;2022-12-11T16:01:18;1.30;99.90
12578;DHT22;6354;51.026;8.968;2022-12-11T16:03:47;1.30;99.90
12578;DHT22;6354;51.026;8.968;2022-12-11T16:06:16;1.30;99.90
12578;DHT22;6354;51.026;8.968;2022-12-11T16:08:44;1.30;99.90
12578;DHT22;6354;51.026;8.968;2022-12-11T16:11:13;1.30;99.90
12578;DHT22;6354;51.026;8.968;2022-12-11T16:13:41;1.20;99.90
12578;DHT22;6354;51.026;8.968;2022-12-11T16:16:09;1.30;99.90
12578;DHT22;6354;51.026;8.968;2022-12-11T16:18:37;1.20;99.90
12578;DHT22;6354;51.026;8.968;2022-12-11T16:21:06;1.20;99.90
12578;DHT22;6354;51.026;8.968;2022-12-11T16:23:34;1.20;99.90
12578;DHT22;6354;51.026;8.968;2022-12-11T16:26:05;1.30;99.90
12578;DHT22;6354;51.026;8.968;2022-12-11T16:28:36;1.30;99.90